Time;durP1;ratioP1;P1;durP2;ratioP2;P2;SDS_P1;SDS_P2;PMS_P1;PMS_P2;Temp;Humidity;BMP_temperature;BMP_pressure;BME280_temperature;BME280_humidity;BME280_pressure;Samples;Min_cycle;Max_cycle;Signal;HPM_P1;HPM_P2
2023/03/27 00:00:31;;;;;;;7.75;4.43;;;18.60;50.10;;;;;;5019597;28;20202;-80
2023/03/27 00:02:58;;;;;;;6.85;4.22;;;18.60;50.20;;;;;;5018864;28;20196;-80
2023/03/27 00:05:26;;;;;;;4.88;3.67;;;18.60;50.60;;;;;;5019186;28;20223;-80
2023/03/27 00:07:55;;;;;;;6.65;4.00;;;18.60;50.30;;;;;;5018802;28;20220;-80
2023/03/27 00:10:22;;;;;;;5.88;3.63;;;18.60;50.30;;;;;;5018640;28;20242;-80
2023/03/27 00:12:49;;;;;;;5.78;3.90;;;18.60;50.20;;;;;;5018599;28;20192;-80
2023/03/27 00:15:16;;;;;;;6.35;3.85;;;18.60;50.20;;;;;;5019069;28;20200;-80
2023/03/27 00:17:46;;;;;;;6.82;3.58;;;18.60;50.60;;;;;;5019293;28;20212;-80
2023/03/27 00:20:14;;;;;;;6.68;3.97;;;18.60;50.30;;;;;;5082805;22;20241;-68
2023/03/27 00:22:41;;;;;;;5.78;3.60;;;18.50;50.50;;;;;;5053090;28;20550;-67
2023/03/27 00:25:09;;;;;;;7.18;4.70;;;18.50;50.10;;;;;;5035172;28;20223;-66
2023/03/27 00:27:36;;;;;;;6.88;4.00;;;18.60;50.60;;;;;;5035116;28;20195;-65
2023/03/27 00:30:05;;;;;;;6.20;3.67;;;18.50;50.50;;;;;;5053054;28;20211;-66
2023/03/27 00:32:32;;;;;;;4.35;3.53;;;18.50;50.20;;;;;;5052954;28;20191;-65
2023/03/27 00:35:01;;;;;;;6.95;3.67;;;18.50;50.20;;;;;;5035170;28;20223;-66
2023/03/27 00:37:29;;;;;;;5.47;3.85;;;18.50;50.50;;;;;;5035089;28;20623;-65
2023/03/27 00:39:56;;;;;;;6.70;3.90;;;18.50;50.10;;;;;;5034762;28;20237;-66
2023/03/27 00:42:24;;;;;;;5.38;3.40;;;18.50;50.20;;;;;;5034936;28;20200;-65
2023/03/27 00:44:53;;;;;;;4.25;3.30;;;18.50;50.10;;;;;;5034718;28;20219;-66
2023/03/27 00:47:22;;;;;;;5.63;3.55;;;18.50;50.40;;;;;;5034906;28;20551;-67
2023/03/27 00:49:49;;;;;;;4.40;3.08;;;18.50;50.30;;;;;;5034927;28;20198;-65
2023/03/27 00:52:18;;;;;;;5.45;3.63;;;18.50;50.20;;;;;;5034775;28;20196;-66
2023/03/27 00:54:45;;;;;;;5.53;3.50;;;18.40;50.40;;;;;;5052519;28;20211;-67
2023/03/27 00:57:15;;;;;;;4.85;3.42;;;18.40;50.20;;;;;;5034821;28;20203;-67
2023/03/27 00:59:42;;;;;;;4.72;3.22;;;18.40;50.40;;;;;;5034588;28;20238;-67
2023/03/27 01:02:10;;;;;;;5.30;3.40;;;18.40;50.30;;;;;;5034810;28;20237;-66
2023/03/27 01:04:38;;;;;;;5.90;3.45;;;18.40;50.00;;;;;;5034868;28;20231;-66
2023/03/27 01:07:06;;;;;;;5.90;3.30;;;18.40;50.10;;;;;;5034737;28;20192;-66
2023/03/27 01:09:35;;;;;;;5.18;3.13;;;18.40;50.00;;;;;;5052350;28;20219;-66
2023/03/27 01:12:33;;;;;;;5.07;3.10;;;18.40;49.90;;;;;;5034630;28;20579;-66
2023/03/27 01:15:08;;;;;;;5.78;3.10;;;18.40;49.90;;;;;;5035259;28;20219;-65
2023/03/27 01:17:43;;;;;;;5.25;3.15;;;18.40;50.40;;;;;;5034514;28;20275;-65
2023/03/27 01:20:31;;;;;;;4.00;2.72;;;18.40;49.80;;;;;;5034324;28;20227;-66
2023/03/27 01:23:18;;;;;;;4.65;2.90;;;18.40;49.80;;;;;;5036273;28;20202;-65
2023/03/27 01:26:02;;;;;;;4.07;2.85;;;18.40;49.80;;;;;;5038106;28;20207;-65
2023/03/27 01:28:46;;;;;;;6.22;3.28;;;18.40;49.80;;;;;;5038114;28;20191;-66
2023/03/27 01:31:24;;;;;;;3.60;2.60;;;18.30;49.90;;;;;;5036376;28;20195;-65
2023/03/27 01:34:05;;;;;;;5.32;3.50;;;18.30;50.00;;;;;;5038081;28;20634;-66
2023/03/27 01:36:55;;;;;;;4.25;2.90;;;18.30;50.30;;;;;;5038064;28;20665;-66
2023/03/27 01:39:32;;;;;;;3.47;2.70;;;18.30;50.00;;;;;;5038040;28;20237;-66
2023/03/27 01:42:04;;;;;;;3.58;2.65;;;18.30;50.50;;;;;;5037968;28;20191;-67
2023/03/27 01:44:34;;;;;;;4.55;2.78;;;18.30;49.90;;;;;;5038680;28;20298;-66
2023/03/27 01:47:03;;;;;;;3.42;2.40;;;18.30;50.00;;;;;;5055971;28;20596;-67
2023/03/27 01:49:34;;;;;;;4.07;2.90;;;18.20;49.90;;;;;;5037824;28;20188;-66
2023/03/27 01:52:03;;;;;;;3.85;2.53;;;18.30;49.90;;;;;;5037788;28;20191;-67
2023/03/27 01:54:33;;;;;;;4.43;2.80;;;18.30;50.00;;;;;;5037922;28;20211;-67
2023/03/27 01:57:01;;;;;;;3.80;2.80;;;18.20;50.10;;;;;;5037533;28;20222;-67
2023/03/27 01:59:29;;;;;;;3.22;2.58;;;18.20;49.80;;;;;;5037341;28;20302;-65
2023/03/27 02:02:01;;;;;;;3.28;2.75;;;18.20;49.70;;;;;;5037405;28;20196;-67
2023/03/27 02:04:30;;;;;;;4.28;2.50;;;18.20;49.80;;;;;;5037413;28;20211;-66
2023/03/27 02:07:00;;;;;;;4.53;2.95;;;18.20;49.80;;;;;;5037294;28;20230;-66
2023/03/27 02:09:30;;;;;;;3.15;2.42;;;18.20;49.80;;;;;;5037536;28;20192;-67
2023/03/27 02:12:02;;;;;;;4.13;2.67;;;18.20;49.90;;;;;;5037387;28;20194;-66
2023/03/27 02:14:32;;;;;;;3.80;2.58;;;18.20;49.90;;;;;;5036909;28;20219;-66
2023/03/27 02:17:02;;;;;;;4.45;2.55;;;18.20;49.80;;;;;;5037159;28;20203;-65
2023/03/27 02:19:33;;;;;;;3.65;2.67;;;18.10;50.10;;;;;;5054937;28;20214;-67
2023/03/27 02:22:00;;;;;;;3.60;2.45;;;18.10;50.00;;;;;;5037002;28;20290;-66
2023/03/27 02:24:28;;;;;;;3.35;2.50;;;18.10;50.00;;;;;;5036814;28;20226;-66
2023/03/27 02:27:00;;;;;;;3.72;2.45;;;18.10;50.10;;;;;;5055089;28;20195;-67
2023/03/27 02:29:36;;;;;;;3.00;2.60;;;18.10;50.10;;;;;;5037179;28;20195;-67
2023/03/27 02:32:11;;;;;;;3.33;2.65;;;18.10;50.10;;;;;;5037074;28;20673;-66
2023/03/27 02:34:57;;;;;;;4.10;2.80;;;18.00;50.10;;;;;;5036771;28;20220;-67
2023/03/27 02:37:28;;;;;;;3.80;2.50;;;18.00;50.10;;;;;;5017132;28;20191;-67
2023/03/27 02:40:33;;;;;;;5.18;2.90;;;18.00;49.80;;;;;;5037170;28;20727;-65
2023/03/27 02:43:23;;;;;;;4.03;2.65;;;18.10;49.80;;;;;;5054426;28;20196;-66
2023/03/27 02:45:52;;;;;;;5.72;2.85;;;18.00;49.60;;;;;;5036879;28;20215;-66
2023/03/27 02:48:22;;;;;;;2.90;2.50;;;18.00;49.50;;;;;;5036641;28;20195;-67
2023/03/27 02:50:52;;;;;;;4.55;2.83;;;18.00;49.70;;;;;;5036435;28;20195;-65
2023/03/27 02:53:21;;;;;;;4.20;2.90;;;18.00;49.50;;;;;;5036383;28;20198;-66
2023/03/27 02:55:49;;;;;;;4.60;3.08;;;18.00;49.90;;;;;;5037127;28;20215;-66
2023/03/27 02:58:19;;;;;;;4.65;2.83;;;17.90;49.40;;;;;;5036536;28;20260;-65
2023/03/27 03:00:56;;;;;;;5.05;2.88;;;18.00;49.30;;;;;;5036374;28;20606;-66
2023/03/27 03:03:59;;;;;;;4.55;3.00;;;18.00;49.10;;;;;;5040513;28;20677;-66
2023/03/27 03:06:56;;;;;;;5.13;2.88;;;18.00;49.10;;;;;;5036730;28;20195;-66
2023/03/27 03:09:24;;;;;;;5.13;2.58;;;17.90;48.90;;;;;;5036161;28;20196;-67
2023/03/27 03:11:52;;;;;;;5.07;2.78;;;18.00;48.90;;;;;;5036099;28;20195;-65
2023/03/27 03:14:21;;;;;;;5.13;2.88;;;17.90;49.20;;;;;;5036140;28;20203;-66
2023/03/27 03:16:50;;;;;;;5.78;3.00;;;17.90;49.00;;;;;;5035903;28;20573;-66
2023/03/27 03:19:17;;;;;;;5.82;2.85;;;17.90;48.90;;;;;;5035904;28;20263;-65
2023/03/27 03:21:48;;;;;;;3.92;2.83;;;17.90;48.90;;;;;;5035797;28;20601;-66
2023/03/27 03:24:16;;;;;;;4.53;3.00;;;18.00;49.10;;;;;;5035777;28;20191;-66
2023/03/27 03:26:48;;;;;;;4.03;2.78;;;17.90;49.00;;;;;;5035996;28;20286;-65
2023/03/27 03:29:17;;;;;;;5.10;2.70;;;17.90;49.10;;;;;;5040552;28;20191;-65
2023/03/27 03:31:59;;;;;;;5.30;2.72;;;17.90;49.20;;;;;;5057582;28;20254;-65
2023/03/27 03:34:26;;;;;;;4.75;2.78;;;17.90;48.90;;;;;;5043200;28;20265;-66
2023/03/27 03:36:54;;;;;;;4.53;2.65;;;18.00;49.10;;;;;;5035673;28;20623;-65
2023/03/27 03:39:28;;;;;;;5.78;2.90;;;17.90;49.10;;;;;;5035838;28;20694;-65
2023/03/27 03:41:55;;;;;;;6.70;2.92;;;17.90;48.90;;;;;;5035725;28;20202;-66
2023/03/27 03:44:22;;;;;;;4.60;2.65;;;17.90;48.80;;;;;;5035623;28;20293;-66
2023/03/27 03:46:49;;;;;;;5.18;2.53;;;18.00;48.60;;;;;;5035253;28;20740;-66
2023/03/27 03:49:22;;;;;;;3.45;2.40;;;17.90;49.30;;;;;;5035710;28;20569;-66
2023/03/27 03:51:49;;;;;;;5.28;2.75;;;17.90;48.50;;;;;;5035695;28;20210;-66
2023/03/27 03:54:17;;;;;;;5.47;2.80;;;18.00;48.90;;;;;;5035985;28;20191;-66
2023/03/27 03:56:44;;;;;;;5.93;2.58;;;17.90;48.60;;;;;;5035900;28;20685;-66
2023/03/27 03:59:11;;;;;;;3.50;2.28;;;18.00;48.70;;;;;;5036545;28;20692;-66
2023/03/27 04:01:59;;;;;;;5.95;2.50;;;17.90;48.60;;;;;;5053949;28;20249;-66
2023/03/27 04:04:32;;;;;;;4.55;2.28;;;17.90;48.90;;;;;;5035776;28;20223;-66
2023/03/27 04:07:05;;;;;;;4.63;2.58;;;17.90;49.40;;;;;;5053854;28;20186;-67
2023/03/27 04:09:37;;;;;;;4.53;2.47;;;17.90;48.60;;;;;;5035805;28;20191;-67
2023/03/27 04:12:08;;;;;;;3.38;2.60;;;18.00;48.60;;;;;;5035640;28;20203;-68
2023/03/27 04:14:56;;;;;;;5.00;2.63;;;17.90;48.30;;;;;;5035380;28;20227;-67
2023/03/27 04:17:47;;;;;;;3.90;2.38;;;18.00;48.40;;;;;;5015550;28;20199;-66
2023/03/27 04:20:16;;;;;;;3.30;2.28;;;18.00;48.00;;;;;;5035208;28;20246;-66
2023/03/27 04:22:45;;;;;;;4.10;2.28;;;18.00;48.00;;;;;;5035160;28;20237;-67
2023/03/27 04:25:14;;;;;;;5.38;2.40;;;18.00;48.10;;;;;;5035804;28;20220;-68
2023/03/27 04:27:44;;;;;;;3.95;2.50;;;18.00;48.60;;;;;;5035149;28;20192;-67
2023/03/27 04:30:24;;;;;;;4.18;2.22;;;18.00;48.40;;;;;;5035663;28;20211;-68
2023/03/27 04:33:17;;;;;;;4.97;2.50;;;18.00;48.30;;;;;;5053255;28;20178;-67
2023/03/27 04:36:05;;;;;;;4.85;2.40;;;18.00;48.40;;;;;;5052997;28;20649;-67
2023/03/27 04:38:40;;;;;;;6.25;2.50;;;18.00;49.10;;;;;;5035364;28;20254;-68
2023/03/27 04:41:07;;;;;;;5.40;2.13;;;18.00;48.60;;;;;;5035149;28;20280;-67
2023/03/27 04:43:35;;;;;;;4.40;2.42;;;18.00;48.60;;;;;;5035212;28;20218;-67
2023/03/27 04:46:04;;;;;;;6.03;2.38;;;18.00;48.60;;;;;;5035043;28;20216;-68
2023/03/27 04:48:32;;;;;;;4.35;2.00;;;18.00;48.60;;;;;;5035010;28;20253;-68
2023/03/27 04:51:11;;;;;;;6.25;2.45;;;18.00;48.20;;;;;;5035441;28;20226;-68
2023/03/27 04:53:41;;;;;;;6.63;2.42;;;18.00;48.20;;;;;;5034835;28;20191;-67
2023/03/27 04:56:10;;;;;;;4.03;2.17;;;18.00;47.90;;;;;;5035003;28;20215;-67
2023/03/27 04:58:45;;;;;;;3.55;2.05;;;18.00;47.80;;;;;;5037212;28;20184;-67
2023/03/27 05:01:16;;;;;;;4.75;1.80;;;18.00;47.60;;;;;;5038820;28;20261;-67
2023/03/27 05:04:07;;;;;;;5.93;2.45;;;18.00;47.50;;;;;;5050710;28;20618;-69
2023/03/27 05:06:47;;;;;;;4.60;2.25;;;18.00;47.60;;;;;;5039736;28;20191;-68
2023/03/27 05:09:17;;;;;;;5.05;2.10;;;18.00;47.50;;;;;;5039438;28;20623;-68
2023/03/27 05:11:48;;;;;;;4.45;2.38;;;18.00;47.50;;;;;;5038648;28;20249;-68
2023/03/27 05:14:15;;;;;;;4.35;2.10;;;18.00;47.10;;;;;;5038580;28;20211;-68
2023/03/27 05:16:42;;;;;;;3.08;2.10;;;18.00;47.30;;;;;;5038507;28;20286;-68
2023/03/27 05:19:10;;;;;;;3.38;2.00;;;17.90;47.20;;;;;;5038932;28;20199;-68
2023/03/27 05:21:42;;;;;;;4.43;1.67;;;17.90;47.10;;;;;;5038139;28;20224;-67
2023/03/27 05:24:12;;;;;;;4.05;1.92;;;17.90;47.10;;;;;;5044840;28;20206;-69
2023/03/27 05:26:39;;;;;;;3.70;2.20;;;17.90;46.80;;;;;;5060195;28;20219;-67
2023/03/27 05:29:07;;;;;;;3.30;2.00;;;17.90;46.50;;;;;;5044246;28;20245;-68
2023/03/27 05:31:38;;;;;;;4.78;2.10;;;18.00;46.50;;;;;;5056485;28;20605;-69
2023/03/27 05:34:27;;;;;;;4.97;1.80;;;17.90;46.40;;;;;;5055724;28;20215;-71
2023/03/27 05:36:57;;;;;;;3.67;2.05;;;17.90;46.40;;;;;;5038370;28;20195;-71
2023/03/27 05:39:29;;;;;;;3.53;1.80;;;17.90;46.40;;;;;;5038636;28;20199;-71
2023/03/27 05:41:57;;;;;;;4.70;1.90;;;17.90;46.50;;;;;;5038041;28;20219;-71
2023/03/27 05:44:26;;;;;;;3.90;2.13;;;17.90;46.20;;;;;;5038231;28;20238;-73
2023/03/27 05:46:53;;;;;;;2.75;1.80;;;17.90;46.90;;;;;;5038051;28;20203;-71
2023/03/27 05:49:28;;;;;;;2.55;1.77;;;17.90;45.80;;;;;;5037646;28;20189;-68
2023/03/27 05:52:07;;;;;;;4.22;1.92;;;17.90;46.10;;;;;;5038484;28;20249;-68
2023/03/27 05:54:36;;;;;;;2.65;1.85;;;17.90;46.30;;;;;;5037483;28;20215;-69
2023/03/27 05:57:11;;;;;;;3.38;1.92;;;17.90;45.70;;;;;;5037708;28;20197;-68
2023/03/27 05:59:40;;;;;;;3.63;1.90;;;17.90;45.90;;;;;;5037648;28;20218;-69
2023/03/27 06:02:26;;;;;;;3.72;1.90;;;17.90;45.90;;;;;;5037907;28;20218;-69
2023/03/27 06:05:00;;;;;;;2.72;1.80;;;17.90;45.80;;;;;;5037665;28;20640;-69
2023/03/27 06:07:30;;;;;;;2.85;1.80;;;17.90;46.30;;;;;;5037832;28;20191;-70
2023/03/27 06:10:06;;;;;;;4.13;2.03;;;17.80;46.20;;;;;;5038056;28;20192;-70
2023/03/27 06:13:00;;;;;;;2.90;1.60;;;17.80;46.00;;;;;;5038213;28;20188;-70
2023/03/27 06:15:35;;;;;;;3.95;1.80;;;17.90;45.90;;;;;;5038027;28;20241;-71
2023/03/27 06:18:14;;;;;;;4.95;1.90;;;17.90;45.90;;;;;;5037880;28;20677;-70
2023/03/27 06:20:41;;;;;;;3.33;1.80;;;17.90;45.80;;;;;;5049589;22;20318;-80
2023/03/27 06:23:09;;;;;;;2.65;1.73;;;17.90;45.70;;;;;;5038012;28;20202;-80
2023/03/27 06:25:38;;;;;;;3.42;1.70;;;17.90;45.60;;;;;;5038247;28;20204;-80
2023/03/27 06:28:08;;;;;;;4.68;1.88;;;18.00;45.60;;;;;;5035719;28;20220;-80
2023/03/27 06:30:41;;;;;;;4.22;2.10;;;18.00;45.60;;;;;;5035262;28;20241;-80
2023/03/27 06:33:26;;;;;;;5.00;1.80;;;18.00;45.10;;;;;;5037858;28;20207;-80
2023/03/27 06:35:58;;;;;;;4.03;1.80;;;18.00;45.00;;;;;;5038695;28;20196;-80
2023/03/27 06:38:31;;;;;;;2.22;1.70;;;18.00;45.00;;;;;;5038279;28;20192;-80
2023/03/27 06:41:03;;;;;;;4.03;1.70;;;18.00;45.20;;;;;;5038366;28;20220;-80
2023/03/27 06:43:53;;;;;;;2.05;1.75;;;18.00;45.40;;;;;;5033627;28;20196;-80
2023/03/27 06:46:31;;;;;;;3.88;2.00;;;18.00;45.20;;;;;;5038865;28;20220;-80
2023/03/27 06:49:15;;;;;;;4.40;1.73;;;18.00;45.00;;;;;;5038216;28;20188;-80
2023/03/27 06:51:42;;;;;;;3.47;1.83;;;18.00;45.20;;;;;;5038464;28;20200;-80
2023/03/27 06:54:11;;;;;;;3.25;1.65;;;18.00;45.10;;;;;;5037859;28;20204;-80
2023/03/27 06:56:44;;;;;;;2.90;1.67;;;18.00;44.50;;;;;;5037908;28;20246;-80
2023/03/27 06:59:16;;;;;;;4.00;1.73;;;18.00;44.80;;;;;;5038778;28;20192;-80
2023/03/27 07:01:46;;;;;;;2.83;1.75;;;18.00;44.50;;;;;;5038224;28;20216;-80
2023/03/27 07:04:26;;;;;;;4.05;1.85;;;18.10;45.00;;;;;;5040709;28;20239;-80
2023/03/27 07:07:03;;;;;;;5.10;1.70;;;18.00;45.30;;;;;;5039969;28;20239;-80
2023/03/27 07:09:34;;;;;;;3.08;1.60;;;18.10;44.60;;;;;;5040978;28;20263;-80
2023/03/27 07:12:07;;;;;;;3.08;1.50;;;18.10;44.80;;;;;;5046717;28;20199;-80
2023/03/27 07:14:36;;;;;;;3.85;1.85;;;18.10;44.40;;;;;;5045481;28;20199;-80
2023/03/27 07:17:03;;;;;;;2.88;1.38;;;18.10;44.80;;;;;;5043004;28;20226;-80
2023/03/27 07:19:52;;;;;;;3.42;1.77;;;18.10;44.40;;;;;;5044390;28;20196;-80
2023/03/27 07:22:24;;;;;;;3.17;1.67;;;18.10;44.30;;;;;;5045029;28;20208;-80
2023/03/27 07:24:51;;;;;;;5.50;1.85;;;18.20;44.30;;;;;;5045622;28;20310;-80
2023/03/27 07:27:23;;;;;;;4.30;1.60;;;18.20;44.30;;;;;;5045881;28;20246;-80
2023/03/27 07:29:52;;;;;;;2.97;1.50;;;18.20;43.90;;;;;;5037591;28;20283;-80
2023/03/27 07:32:21;;;;;;;4.90;1.80;;;18.30;44.10;;;;;;5034268;28;20275;-80
2023/03/27 07:34:50;;;;;;;3.40;1.65;;;18.30;44.00;;;;;;5018294;28;20678;-80
2023/03/27 07:37:22;;;;;;;3.35;1.65;;;18.30;44.00;;;;;;5035915;28;20601;-80
2023/03/27 07:40:12;;;;;;;4.28;1.63;;;18.30;44.20;;;;;;5035716;28;20195;-80
2023/03/27 07:42:45;;;;;;;3.13;1.50;;;18.40;44.20;;;;;;5034770;28;20231;-81
2023/03/27 07:45:18;;;;;;;3.10;1.50;;;18.40;43.90;;;;;;5034028;28;20184;-81
2023/03/27 07:47:48;;;;;;;3.47;1.60;;;18.50;44.00;;;;;;5017731;28;20622;-81
2023/03/27 07:50:17;;;;;;;3.08;1.50;;;18.50;44.30;;;;;;5033547;28;20207;-81
2023/03/27 07:52:45;;;;;;;3.60;1.60;;;18.70;44.20;;;;;;5017518;28;20202;-81
2023/03/27 07:55:15;;;;;;;3.15;1.48;;;18.90;43.80;;;;;;5034056;28;20192;-81
2023/03/27 07:57:48;;;;;;;2.22;1.40;;;19.00;43.10;;;;;;5033030;28;20216;-81
2023/03/27 08:00:21;;;;;;;3.47;1.70;;;19.00;42.50;;;;;;5034290;28;20210;-81
2023/03/27 08:03:05;;;;;;;2.78;1.50;;;19.10;43.20;;;;;;5033724;28;20303;-81
2023/03/27 08:05:33;;;;;;;2.10;1.45;;;19.20;42.20;;;;;;5033526;28;20283;-81
2023/03/27 08:08:07;;;;;;;2.72;1.60;;;19.20;43.20;;;;;;5019621;28;20199;-81
2023/03/27 08:10:43;;;;;;;4.10;1.70;;;19.20;42.50;;;;;;5034157;28;20202;-81
2023/03/27 08:13:13;;;;;;;2.95;1.50;;;19.30;42.60;;;;;;5020159;28;20199;-81
2023/03/27 08:15:40;;;;;;;2.05;1.48;;;19.40;42.30;;;;;;5036384;28;20200;-81
2023/03/27 08:18:19;;;;;;;2.13;1.30;;;19.40;42.70;;;;;;5047678;22;20234;-54
2023/03/27 08:20:48;;;;;;;3.00;1.63;;;19.40;42.30;;;;;;5034790;28;20286;-54
2023/03/27 08:23:16;;;;;;;3.03;1.55;;;19.50;42.10;;;;;;5034927;28;20566;-54
2023/03/27 08:26:05;;;;;;;2.20;1.45;;;19.60;41.90;;;;;;5052828;28;20207;-54
2023/03/27 08:28:41;;;;;;;2.30;1.20;;;19.70;41.70;;;;;;5034944;28;20573;-54
2023/03/27 08:31:10;;;;;;;3.35;1.50;;;19.70;41.00;;;;;;5034881;28;20213;-54
2023/03/27 08:33:37;;;;;;;2.95;1.40;;;19.80;41.50;;;;;;5040919;28;20217;-55
2023/03/27 08:36:04;;;;;;;3.15;1.60;;;19.80;41.10;;;;;;5039527;28;20195;-55
2023/03/27 08:38:32;;;;;;;2.67;1.52;;;19.90;41.20;;;;;;5039396;28;20215;-55
2023/03/27 08:41:06;;;;;;;4.15;1.48;;;19.90;41.20;;;;;;5039613;28;20278;-54
2023/03/27 08:43:41;;;;;;;2.47;1.45;;;20.00;41.10;;;;;;5039097;28;20681;-54
2023/03/27 08:46:12;;;;;;;2.85;1.45;;;20.20;40.80;;;;;;5038744;28;20666;-54
2023/03/27 08:48:43;;;;;;;3.60;1.50;;;20.30;40.90;;;;;;5038797;28;20700;-55
2023/03/27 08:51:13;;;;;;;2.55;1.33;;;20.60;40.60;;;;;;5038862;28;20188;-54
2023/03/27 08:53:43;;;;;;;2.63;1.38;;;20.80;40.60;;;;;;5038633;28;20204;-55
2023/03/27 08:56:13;;;;;;;2.65;1.55;;;21.00;40.00;;;;;;5039358;28;20249;-55
2023/03/27 08:58:43;;;;;;;3.65;1.45;;;21.20;40.10;;;;;;5039239;28;20257;-60
2023/03/27 09:01:30;;;;;;;2.05;1.20;;;21.30;40.00;;;;;;5038672;28;20212;-54
2023/03/27 09:04:06;;;;;;;2.33;1.40;;;21.40;39.70;;;;;;5038375;28;20286;-54
2023/03/27 09:06:38;;;;;;;1.77;1.17;;;21.50;39.30;;;;;;5039178;28;20274;-54
2023/03/27 09:09:09;;;;;;;3.90;1.42;;;21.60;39.30;;;;;;5038056;28;20250;-55
2023/03/27 09:11:44;;;;;;;3.42;1.58;;;21.70;39.00;;;;;;5038127;28;20188;-54
2023/03/27 09:14:19;;;;;;;2.72;1.40;;;21.80;39.40;;;;;;5038303;28;20249;-54
2023/03/27 09:16:48;;;;;;;1.98;1.40;;;22.00;39.30;;;;;;5038418;28;20254;-54
2023/03/27 09:19:31;;;;;;;2.88;1.40;;;22.10;38.90;;;;;;5037917;28;20221;-54
2023/03/27 09:22:00;;;;;;;3.45;1.42;;;22.10;38.80;;;;;;5038961;28;20215;-55
2023/03/27 09:24:51;;;;;;;2.25;1.30;;;22.20;38.80;;;;;;5037867;28;20192;-54
2023/03/27 09:27:48;;;;;;;2.75;1.20;;;22.20;38.40;;;;;;5038078;28;20191;-55
2023/03/27 09:30:34;;;;;;;2.40;1.40;;;22.20;38.60;;;;;;5037986;28;20195;-54
2023/03/27 09:33:09;;;;;;;3.22;1.40;;;22.30;38.60;;;;;;5037696;28;20192;-54
2023/03/27 09:35:37;;;;;;;3.30;1.48;;;22.30;38.50;;;;;;5037638;28;20207;-55
2023/03/27 09:38:15;;;;;;;3.08;1.50;;;22.40;38.60;;;;;;5037896;28;20249;-55
2023/03/27 09:40:44;;;;;;;2.58;1.50;;;22.50;38.50;;;;;;5037730;28;20188;-54
2023/03/27 09:43:15;;;;;;;2.28;1.17;;;22.60;38.60;;;;;;5037037;28;20218;-54
2023/03/27 09:45:44;;;;;;;2.90;1.45;;;22.60;38.40;;;;;;5037339;28;20192;-54
2023/03/27 09:48:13;;;;;;;1.45;1.15;;;22.70;38.50;;;;;;5037346;28;20306;-55
2023/03/27 09:50:45;;;;;;;2.10;1.15;;;22.70;38.50;;;;;;5037471;28;20638;-55
2023/03/27 09:53:41;;;;;;;2.35;1.25;;;22.70;38.60;;;;;;5052274;28;20223;-55
2023/03/27 09:56:15;;;;;;;1.50;1.15;;;22.70;38.40;;;;;;5037275;28;20724;-55
2023/03/27 09:58:50;;;;;;;2.05;1.20;;;22.80;38.80;;;;;;5037297;28;20637;-55
2023/03/27 10:01:28;;;;;;;1.50;1.15;;;22.80;38.50;;;;;;5036988;28;20637;-55
2023/03/27 10:04:00;;;;;;;2.30;1.17;;;22.80;38.40;;;;;;5037753;28;20187;-55
2023/03/27 10:06:37;;;;;;;2.03;1.23;;;22.80;38.20;;;;;;5037963;28;20207;-55
2023/03/27 10:09:24;;;;;;;2.25;1.30;;;22.70;38.60;;;;;;5037057;28;20219;-55
2023/03/27 10:12:03;;;;;;;2.83;1.35;;;22.70;38.50;;;;;;5037249;28;20191;-56
2023/03/27 10:14:33;;;;;;;2.38;1.25;;;22.80;38.50;;;;;;5036971;28;20191;-56
2023/03/27 10:17:02;;;;;;;2.58;1.38;;;22.80;38.40;;;;;;5036962;28;20211;-56
2023/03/27 10:19:30;;;;;;;3.95;1.30;;;22.70;38.20;;;;;;5037021;28;20573;-56
2023/03/27 10:22:01;;;;;;;2.10;1.30;;;22.70;38.40;;;;;;5036833;28;20208;-56
2023/03/27 10:24:32;;;;;;;1.17;1.05;;;22.70;38.30;;;;;;5036983;28;20245;-56
2023/03/27 10:27:25;;;;;;;1.75;1.30;;;22.80;38.30;;;;;;5037038;28;20669;-55
2023/03/27 10:30:29;;;;;;;1.45;1.10;;;22.80;38.30;;;;;;5054741;28;20179;-56
2023/03/27 10:33:31;;;;;;;2.90;1.30;;;22.80;38.30;;;;;;5040585;28;20227;-56
2023/03/27 10:36:12;;;;;;;1.98;1.10;;;22.80;38.40;;;;;;5036659;28;20238;-55
2023/03/27 10:38:40;;;;;;;1.75;1.10;;;22.80;38.20;;;;;;5036344;28;20219;-56
2023/03/27 10:41:28;;;;;;;1.77;1.05;;;22.80;38.20;;;;;;5043423;28;20278;-56
2023/03/27 10:43:55;;;;;;;2.03;1.20;;;22.70;38.10;;;;;;5036340;28;20199;-55
2023/03/27 10:46:24;;;;;;;2.47;1.33;;;22.70;38.10;;;;;;5054173;28;20188;-55
2023/03/27 10:48:57;;;;;;;1.42;1.27;;;22.70;38.90;;;;;;5036927;28;20625;-56
2023/03/27 10:51:33;;;;;;;1.73;1.30;;;22.70;38.20;;;;;;5036602;28;20195;-55
2023/03/27 10:54:06;;;;;;;2.47;1.30;;;22.70;38.30;;;;;;5036229;28;20203;-55
2023/03/27 10:56:50;;;;;;;2.00;1.25;;;22.70;38.00;;;;;;5035925;28;20191;-55
2023/03/27 10:59:20;;;;;;;2.25;1.23;;;22.60;38.00;;;;;;5036092;28;20290;-56
2023/03/27 11:01:49;;;;;;;2.88;1.20;;;22.50;38.20;;;;;;5035953;28;20260;-56
2023/03/27 11:04:20;;;;;;;1.98;1.10;;;22.50;38.00;;;;;;5036073;28;20195;-55
2023/03/27 11:06:51;;;;;;;1.48;1.13;;;22.50;38.30;;;;;;5036543;28;20194;-55
2023/03/27 11:09:22;;;;;;;1.58;1.27;;;22.40;38.30;;;;;;5035789;28;20273;-56
2023/03/27 11:12:10;;;;;;;1.90;1.23;;;22.40;38.30;;;;;;5053173;28;20200;-55
2023/03/27 11:14:52;;;;;;;1.40;1.17;;;22.40;38.20;;;;;;5035928;28;20669;-55
2023/03/27 11:17:25;;;;;;;1.92;1.15;;;22.40;38.10;;;;;;5035827;28;20748;-56
2023/03/27 11:20:21;;;;;;;2.05;1.13;;;22.40;38.50;;;;;;5053354;28;20199;-56
2023/03/27 11:23:09;;;;;;;2.15;1.23;;;22.30;38.50;;;;;;5053585;28;20241;-55
2023/03/27 11:25:47;;;;;;;2.00;1.30;;;22.30;38.50;;;;;;5036303;28;20205;-56
2023/03/27 11:28:21;;;;;;;2.92;1.25;;;22.30;38.50;;;;;;5036200;28;20215;-56
2023/03/27 11:30:51;;;;;;;1.38;1.15;;;22.20;38.40;;;;;;5053608;28;20187;-55
2023/03/27 11:33:37;;;;;;;1.92;1.20;;;22.20;38.40;;;;;;5035559;28;20560;-56
2023/03/27 11:36:22;;;;;;;1.90;1.20;;;22.20;38.40;;;;;;5036105;28;20199;-56
2023/03/27 11:39:06;;;;;;;1.80;1.10;;;22.20;38.40;;;;;;5035873;28;20222;-56
2023/03/27 11:41:34;;;;;;;2.53;1.10;;;22.20;38.40;;;;;;5035455;28;20195;-56
2023/03/27 11:44:02;;;;;;;2.17;1.20;;;22.20;38.10;;;;;;5035159;28;20207;-56
2023/03/27 11:47:17;;;;;;;1.77;1.20;;;22.20;37.30;;;;;;5039063;28;20291;-55
2023/03/27 11:49:55;;;;;;;1.33;0.88;;;22.30;37.60;;;;;;5035100;28;20241;-55
2023/03/27 11:52:30;;;;;;;2.97;1.20;;;22.30;38.10;;;;;;5035253;28;20278;-55
2023/03/27 11:55:05;;;;;;;2.05;1.10;;;22.30;37.30;;;;;;5035256;28;20198;-55
2023/03/27 11:57:39;;;;;;;1.50;1.13;;;22.30;37.50;;;;;;5035577;28;20248;-55
2023/03/27 12:00:21;;;;;;;2.25;1.23;;;22.40;38.10;;;;;;5035170;28;20607;-55
2023/03/27 12:03:14;;;;;;;1.92;1.05;;;22.30;37.50;;;;;;5052869;28;20208;-55
2023/03/27 12:05:51;;;;;;;1.45;0.93;;;22.40;37.50;;;;;;5035155;28;20222;-55
2023/03/27 12:08:23;;;;;;;1.38;1.00;;;22.40;37.60;;;;;;5034440;28;20223;-55
2023/03/27 12:10:53;;;;;;;1.42;1.05;;;22.30;37.40;;;;;;5035013;28;20198;-55
2023/03/27 12:13:50;;;;;;;2.90;1.30;;;22.40;37.30;;;;;;5035049;28;20198;-55
2023/03/27 12:16:53;;;;;;;1.23;1.05;;;22.40;37.30;;;;;;5035096;28;20531;-56
2023/03/27 12:19:49;;;;;;;1.70;1.10;;;22.40;37.30;;;;;;5036147;28;20231;-56
2023/03/27 12:22:30;;;;;;;2.47;1.20;;;22.40;37.40;;;;;;5005005;28;20229;-75
2023/03/27 12:25:24;;;;;;;1.33;1.10;;;22.40;37.70;;;;;;4994164;28;20243;-77
2023/03/27 12:28:21;;;;;;;3.67;1.35;;;22.40;37.50;;;;;;4947775;28;20293;-77
2023/03/27 12:30:56;;;;;;;1.63;0.95;;;22.40;37.20;;;;;;4974142;28;20190;-77
2023/03/27 12:33:37;;;;;;;2.08;1.20;;;22.40;37.10;;;;;;4973880;28;20198;-77
2023/03/27 12:36:06;;;;;;;2.47;1.10;;;22.40;37.10;;;;;;4973800;28;20218;-77
2023/03/27 12:38:36;;;;;;;1.33;1.05;;;22.40;37.40;;;;;;4973682;28;20198;-76
2023/03/27 12:41:12;;;;;;;1.77;1.10;;;22.40;37.40;;;;;;4973482;28;20198;-76
2023/03/27 12:44:03;;;;;;;2.60;1.17;;;22.30;37.20;;;;;;4973284;28;20222;-77
2023/03/27 12:46:36;;;;;;;1.27;1.00;;;22.30;36.80;;;;;;4973699;28;20218;-76
2023/03/27 12:49:24;;;;;;;2.65;1.40;;;22.30;37.30;;;;;;4973836;28;20221;-77
2023/03/27 12:52:04;;;;;;;2.13;1.10;;;22.20;36.80;;;;;;4974012;28;20229;-77
2023/03/27 12:55:10;;;;;;;1.10;1.00;;;22.20;37.70;;;;;;4974607;28;20284;-77
2023/03/27 12:58:10;;;;;;;1.30;0.88;;;22.20;37.30;;;;;;4973725;28;20213;-77
2023/03/27 13:00:58;;;;;;;2.08;1.02;;;22.20;37.30;;;;;;4974341;28;20348;-77
2023/03/27 13:03:53;;;;;;;2.22;0.98;;;22.10;37.20;;;;;;4973941;28;20305;-77
2023/03/27 13:06:30;;;;;;;1.45;1.02;;;22.10;37.10;;;;;;4973820;28;20225;-77
2023/03/27 13:09:35;;;;;;;2.13;1.10;;;22.10;37.50;;;;;;4974751;28;20210;-77
2023/03/27 13:12:17;;;;;;;1.80;1.17;;;22.10;37.60;;;;;;4965189;28;20198;-77
2023/03/27 13:14:53;;;;;;;1.38;1.02;;;22.10;37.40;;;;;;4979514;28;20190;-77
2023/03/27 13:17:36;;;;;;;1.30;1.00;;;22.10;37.30;;;;;;4994943;28;20226;-77
2023/03/27 13:20:09;;;;;;;1.95;1.23;;;22.10;37.40;;;;;;4980796;28;20363;-76
2023/03/27 13:22:53;;;;;;;0.88;0.80;;;22.00;37.10;;;;;;4977035;28;20217;-76
2023/03/27 13:25:31;;;;;;;1.73;1.10;;;22.10;37.60;;;;;;4978445;28;20277;-77
2023/03/27 13:28:27;;;;;;;1.42;0.80;;;22.00;37.60;;;;;;4977358;28;20223;-77